Time;durP1;ratioP1;P1;durP2;ratioP2;P2;SDS_P1;SDS_P2;PMS_P1;PMS_P2;Temp;Humidity;BMP_temperature;BMP_pressure;BME280_temperature;BME280_humidity;BME280_pressure;Samples;Min_cycle;Max_cycle;Signal;HPM_P1;HPM_P2
2022/11/01 00:03:13;;;;;;;21.15;11.00;;;;;;;13.22;75.02;100073.31;10494787;28;20053;-77
2022/11/01 00:08:16;;;;;;;18.80;12.15;;;;;;;13.16;75.43;100075.75;10455126;28;20059;-77
2022/11/01 00:13:20;;;;;;;25.80;11.60;;;;;;;13.15;75.32;100077.59;10483322;28;20064;-77
2022/11/01 00:18:23;;;;;;;20.33;11.85;;;;;;;13.08;75.47;100070.22;10483834;28;20054;-78
2022/11/01 00:23:26;;;;;;;27.10;11.77;;;;;;;13.16;75.38;100073.88;10486083;28;20050;-77
2022/11/01 00:28:31;;;;;;;20.00;12.55;;;;;;;13.07;75.74;100073.94;10486128;28;20076;-78
2022/11/01 00:33:34;;;;;;;19.95;12.20;;;;;;;13.05;75.78;100065.97;10471455;28;20072;-77
2022/11/01 00:38:37;;;;;;;22.70;12.38;;;;;;;12.92;76.17;100060.09;10482044;28;20646;-77
2022/11/01 00:43:41;;;;;;;23.98;12.80;;;;;;;13.08;75.62;100054.91;10491683;28;20076;-77
2022/11/01 00:48:44;;;;;;;24.23;12.57;;;;;;;12.99;75.71;100047.72;10494849;28;20060;-77
2022/11/01 00:53:47;;;;;;;25.75;12.45;;;;;;;12.98;75.63;100044.19;10496305;28;21359;-78
2022/11/01 00:58:51;;;;;;;22.77;12.20;;;;;;;12.97;75.78;100038.91;10476252;28;20044;-77
2022/11/01 01:03:54;;;;;;;19.90;12.05;;;;;;;12.95;75.85;100033.69;10480337;28;21296;-77
2022/11/01 01:08:58;;;;;;;22.27;11.75;;;;;;;12.88;75.92;100016.41;10479838;28;20055;-77
2022/11/01 01:14:02;;;;;;;20.42;12.27;;;;;;;12.90;75.67;100014.41;10471444;28;20044;-77
2022/11/01 01:19:05;;;;;;;21.40;11.75;;;;;;;12.82;75.90;100008.91;10485640;28;20044;-77
2022/11/01 01:24:11;;;;;;;22.63;11.30;;;;;;;12.90;75.84;100009.03;10469300;28;20063;-76
2022/11/01 01:29:15;;;;;;;20.95;11.98;;;;;;;12.95;75.27;99997.81;10494737;28;20138;-76
2022/11/01 01:34:19;;;;;;;20.27;12.10;;;;;;;13.01;75.17;99994.50;10481017;28;21243;-76
2022/11/01 01:39:22;;;;;;;24.73;12.10;;;;;;;13.03;75.01;99987.13;10488239;28;20049;-76
2022/11/01 01:44:49;;;;;;;20.52;12.68;;;;;;;12.93;75.59;99995.25;10466340;28;20044;-77
2022/11/01 01:49:59;;;;;;;20.70;12.05;;;;;;;13.02;75.28;99999.72;10470749;28;20048;-77
2022/11/01 01:55:06;;;;;;;23.85;12.80;;;;;;;13.01;75.14;100000.72;10488034;28;20417;-77
2022/11/01 02:00:10;;;;;;;20.35;12.05;;;;;;;13.00;75.16;99988.25;10493030;28;20044;-76
2022/11/01 02:05:22;;;;;;;22.33;11.52;;;;;;;13.09;74.95;99977.56;10485878;28;20439;-76
2022/11/01 02:10:24;;;;;;;19.45;11.50;;;;;;;13.08;74.76;99974.00;10474076;28;20048;-76
2022/11/01 02:15:33;;;;;;;28.13;11.65;;;;;;;13.08;74.83;99976.69;10479276;28;20046;-77
2022/11/01 02:21:07;;;;;;;26.48;12.35;;;;;;;13.05;75.02;99956.31;10472174;28;20512;-77
2022/11/01 02:26:31;;;;;;;27.27;11.80;;;;;;;13.07;74.86;99939.13;10422607;28;20182;-76
2022/11/01 02:31:49;;;;;;;20.80;11.75;;;;;;;13.11;74.67;99943.19;10481753;28;20046;-76
2022/11/01 02:37:00;;;;;;;22.58;11.05;;;;;;;13.16;74.59;99939.03;10467124;28;20068;-76
2022/11/01 02:42:10;;;;;;;20.30;11.70;;;;;;;13.24;73.99;99941.81;10480269;28;20056;-76
2022/11/01 02:47:14;;;;;;;21.17;12.00;;;;;;;13.25;74.13;99932.75;10496444;28;20067;-76
2022/11/01 02:52:21;;;;;;;24.27;11.75;;;;;;;13.29;74.05;99925.19;10478041;28;20078;-77
2022/11/01 02:57:30;;;;;;;18.15;10.30;;;;;;;13.32;73.83;99938.38;10460806;28;20044;-77
2022/11/01 03:02:40;;;;;;;17.77;10.27;;;;;;;13.28;73.93;99934.31;10477698;28;20048;-77
2022/11/01 03:07:47;;;;;;;24.23;11.40;;;;;;;13.27;74.06;99937.97;10402207;28;21155;-76
2022/11/01 03:12:58;;;;;;;18.20;10.77;;;;;;;13.24;74.52;99932.91;10472684;28;20072;-77
2022/11/01 03:18:10;;;;;;;26.35;11.10;;;;;;;13.26;74.53;99941.69;10469159;28;21282;-77
2022/11/01 03:23:16;;;;;;;20.55;11.55;;;;;;;13.23;74.72;99942.84;10484160;28;20830;-76
2022/11/01 03:28:22;;;;;;;23.50;12.27;;;;;;;13.26;74.60;99930.91;10469617;28;20110;-76
2022/11/01 03:33:28;;;;;;;24.95;11.50;;;;;;;13.19;75.17;99933.38;10468375;28;20056;-75
2022/11/01 03:38:36;;;;;;;20.23;11.88;;;;;;;13.21;74.90;99934.03;10499223;28;20055;-76
2022/11/01 03:43:41;;;;;;;19.30;10.90;;;;;;;13.18;75.09;99945.13;10450755;28;20056;-76
2022/11/01 03:48:45;;;;;;;19.52;12.10;;;;;;;13.21;75.15;99944.00;10495973;28;20056;-77
2022/11/01 03:53:48;;;;;;;21.60;11.52;;;;;;;13.20;75.37;99953.09;10482681;28;20076;-76
2022/11/01 03:58:51;;;;;;;17.65;11.07;;;;;;;13.24;75.30;99952.63;10493705;28;20048;-76
2022/11/01 04:03:55;;;;;;;19.38;10.75;;;;;;;13.23;75.19;99948.25;10480660;28;20045;-78
2022/11/01 04:08:58;;;;;;;19.75;11.18;;;;;;;13.29;74.97;99962.97;10499993;28;20085;-76
2022/11/01 04:24:39;;;;;;;15.43;7.93;;;;;;;13.69;73.36;99962.56;10490882;28;20040;-78
2022/11/01 04:29:42;;;;;;;14.90;7.78;;;;;;;13.97;71.59;99967.00;10503594;28;20058;-77
2022/11/01 04:34:46;;;;;;;12.25;6.60;;;;;;;14.20;70.37;99970.88;10489577;28;20056;-77
2022/11/01 04:39:49;;;;;;;13.48;6.30;;;;;;;14.36;69.37;99960.19;10495839;28;20683;-77
2022/11/01 04:44:51;;;;;;;14.50;7.30;;;;;;;14.52;69.11;99959.47;10486060;28;20056;-78
2022/11/01 04:49:56;;;;;;;18.05;7.20;;;;;;;14.52;69.05;99961.34;10479226;28;20127;-78
2022/11/01 04:54:59;;;;;;;10.45;6.00;;;;;;;14.47;68.97;99969.91;10475626;28;20075;-78
2022/11/01 05:00:01;;;;;;;12.77;6.25;;;;;;;14.41;69.36;99972.41;10466484;28;20072;-77
2022/11/01 05:05:08;;;;;;;14.18;6.38;;;;;;;14.39;69.56;99967.16;10487818;28;20049;-78
2022/11/01 05:10:11;;;;;;;13.98;5.78;;;;;;;14.40;69.76;99973.41;10482366;28;20163;-78
2022/11/01 05:15:14;;;;;;;13.55;5.10;;;;;;;14.49;69.40;99967.91;10478673;28;20051;-77
2022/11/01 05:20:19;;;;;;;9.32;5.95;;;;;;;14.54;69.11;99981.78;10484481;28;20044;-78
2022/11/01 05:25:21;;;;;;;11.65;5.45;;;;;;;14.62;68.69;99978.28;10489515;28;20496;-78
2022/11/01 05:30:24;;;;;;;11.48;4.95;;;;;;;14.54;69.08;99984.50;10499049;28;20048;-78
2022/11/01 05:35:29;;;;;;;10.98;5.00;;;;;;;14.57;69.48;99989.56;10470335;28;20047;-77
2022/11/01 05:40:33;;;;;;;11.35;5.03;;;;;;;14.63;69.05;99998.91;10483011;28;20047;-78
2022/11/01 05:45:36;;;;;;;10.75;4.93;;;;;;;14.60;69.63;99996.53;10483460;28;20509;-78
2022/11/01 05:50:40;;;;;;;14.65;5.00;;;;;;;14.55;69.71;99996.16;10471992;28;20536;-78
2022/11/01 05:55:43;;;;;;;8.65;5.07;;;;;;;14.57;69.86;100003.09;10460527;28;20064;-78
2022/11/01 06:00:46;;;;;;;9.68;4.22;;;;;;;14.70;69.66;100010.78;10477136;28;20612;-78
2022/11/01 06:05:50;;;;;;;8.45;4.85;;;;;;;14.68;69.51;100001.97;10460590;28;20051;-78
2022/11/01 06:10:53;;;;;;;6.40;4.43;;;;;;;14.63;69.84;100003.47;10477891;28;20417;-77
2022/11/01 06:15:58;;;;;;;7.85;4.95;;;;;;;14.61;69.99;100017.13;10483649;28;20052;-78
2022/11/01 06:21:02;;;;;;;14.70;5.13;;;;;;;14.68;69.74;100025.47;10475896;28;20041;-77
2022/11/01 06:26:06;;;;;;;9.10;4.78;;;;;;;14.65;70.17;100025.78;10505702;28;20673;-78
2022/11/01 06:31:09;;;;;;;9.15;4.22;;;;;;;14.87;69.71;100029.78;10491066;28;20622;-78
2022/11/01 06:36:13;;;;;;;12.35;5.35;;;;;;;14.82;69.81;100044.63;10487816;28;20044;-78
2022/11/01 06:41:16;;;;;;;10.63;4.82;;;;;;;14.90;69.71;100061.91;10484535;28;20058;-78
2022/11/01 06:46:19;;;;;;;12.68;5.07;;;;;;;14.95;69.49;100056.88;10476210;28;20116;-78
2022/11/01 06:51:23;;;;;;;10.35;4.22;;;;;;;15.15;69.15;100062.88;10487912;28;20048;-77
2022/11/01 06:56:26;;;;;;;8.82;4.18;;;;;;;15.23;68.50;100076.47;10481195;28;20044;-78
2022/11/01 07:01:29;;;;;;;10.25;4.90;;;;;;;15.21;68.88;100073.91;10478758;28;20129;-77
2022/11/01 07:06:33;;;;;;;7.70;4.22;;;;;;;15.12;69.39;100087.56;10474628;28;20055;-78
2022/11/01 07:11:36;;;;;;;6.90;3.65;;;;;;;15.22;69.02;100102.66;10491287;28;20066;-77
2022/11/01 07:16:40;;;;;;;10.73;4.22;;;;;;;15.19;69.51;100094.88;10476005;28;20138;-77
2022/11/01 07:21:44;;;;;;;10.73;3.67;;;;;;;15.19;69.35;100112.94;10470494;28;20055;-79
2022/11/01 07:26:47;;;;;;;10.25;4.20;;;;;;;15.29;69.38;100116.38;10480902;28;20055;-79
2022/11/01 07:31:49;;;;;;;9.25;3.80;;;;;;;15.35;69.08;100132.00;10482081;28;20055;-78
2022/11/01 07:36:54;;;;;;;9.95;3.47;;;;;;;15.38;69.18;100137.09;10478140;28;20046;-78
2022/11/01 07:41:58;;;;;;;6.70;4.05;;;;;;;15.26;69.76;100155.44;10493944;28;20063;-78
2022/11/01 07:47:01;;;;;;;7.70;3.75;;;;;;;15.39;69.69;100146.94;10487535;28;20058;-77
2022/11/01 07:52:05;;;;;;;7.88;3.20;;;;;;;15.37;69.20;100142.69;10505283;28;20047;-78
2022/11/01 07:57:08;;;;;;;9.27;3.67;;;;;;;15.76;68.26;100134.88;10496453;28;20048;-77
2022/11/01 08:02:11;;;;;;;8.07;2.97;;;;;;;15.42;67.86;100151.16;10484336;28;20559;-79
2022/11/01 08:07:16;;;;;;;7.75;2.97;;;;;;;15.57;67.54;100143.28;10461416;28;20044;-78
2022/11/01 08:12:19;;;;;;;7.03;3.15;;;;;;;15.72;67.00;100149.78;10481071;28;20040;-78
2022/11/01 08:17:22;;;;;;;4.22;2.08;;;;;;;15.52;68.06;100162.69;10490279;28;20428;-78
2022/11/01 08:22:26;;;;;;;5.50;3.22;;;;;;;15.63;67.89;100164.28;10470361;28;20045;-78
2022/11/01 08:27:29;;;;;;;7.18;3.05;;;;;;;15.74;68.12;100184.81;10479602;28;21535;-78
2022/11/01 08:32:36;;;;;;;4.35;2.58;;;;;;;15.53;68.71;100199.59;10467919;28;20054;-78
2022/11/01 08:37:48;;;;;;;7.47;3.13;;;;;;;15.37;68.74;100202.22;10466410;28;20048;-78
2022/11/01 08:42:51;;;;;;;6.10;3.10;;;;;;;15.41;69.34;100218.00;10487686;28;20048;-78
2022/11/01 08:47:59;;;;;;;5.03;2.60;;;;;;;14.85;67.98;100229.19;10503025;28;20067;-77
2022/11/01 08:53:06;;;;;;;4.93;1.98;;;;;;;14.53;65.74;100244.09;10472754;28;20048;-78
2022/11/01 08:58:09;;;;;;;4.93;1.55;;;;;;;14.50;63.98;100252.50;10480964;28;20081;-77
2022/11/01 09:03:12;;;;;;;6.57;1.85;;;;;;;14.77;63.12;100267.81;10485061;28;20066;-78
2022/11/01 09:08:16;;;;;;;1.95;1.10;;;;;;;14.49;60.65;100278.69;10499688;28;20059;-78
2022/11/01 09:13:19;;;;;;;4.55;0.93;;;;;;;14.43;59.48;100292.81;10494575;28;20048;-78
2022/11/01 09:18:22;;;;;;;5.75;0.90;;;;;;;14.69;57.36;100298.31;10483158;28;21184;-78
2022/11/01 09:23:26;;;;;;;0.80;0.30;;;;;;;15.17;52.51;100302.50;10459854;28;20670;-77
2022/11/01 09:28:29;;;;;;;2.58;0.82;;;;;;;15.42;51.79;100295.47;10490542;28;20578;-78
2022/11/01 09:33:36;;;;;;;2.22;0.60;;;;;;;15.87;48.74;100297.09;10475393;28;20071;-77
2022/11/01 09:38:41;;;;;;;3.25;0.70;;;;;;;15.16;49.14;100306.19;10447560;28;20055;-78
2022/11/01 09:43:46;;;;;;;5.32;0.75;;;;;;;15.69;48.72;100305.28;10469259;28;20719;-77
2022/11/01 09:48:49;;;;;;;5.85;1.17;;;;;;;15.54;47.53;100333.94;10477893;28;20049;-77
2022/11/01 09:53:56;;;;;;;2.90;0.75;;;;;;;15.18;47.12;100317.72;10488158;28;20045;-77
2022/11/01 09:59:08;;;;;;;5.07;1.30;;;;;;;15.47;46.53;100303.13;10473233;28;20687;-77
2022/11/01 10:04:40;;;;;;;2.73;0.80;;;;;;;15.26;47.23;100328.63;10484921;28;20662;-78
2022/11/01 10:09:49;;;;;;;8.20;0.90;;;;;;;15.76;46.16;100335.28;10464292;28;21188;-78
2022/11/01 10:15:09;;;;;;;5.38;1.23;;;;;;;16.04;45.59;100346.78;10485403;28;20314;-77
2022/11/01 10:20:14;;;;;;;5.00;1.00;;;;;;;16.13;45.71;100345.84;10492801;28;20048;-77
2022/11/01 10:25:22;;;;;;;7.28;1.65;;;;;;;16.02;46.69;100339.84;10481633;28;20560;-78
2022/11/01 10:30:28;;;;;;;6.13;0.95;;;;;;;16.52;45.74;100374.31;10482223;28;20066;-78
2022/11/01 10:35:35;;;;;;;5.32;0.98;;;;;;;17.33;43.75;100362.81;10478761;28;20044;-78
2022/11/01 10:40:45;;;;;;;7.25;1.75;;;;;;;17.31;43.05;100386.59;10498756;28;20068;-79
2022/11/01 10:45:54;;;;;;;6.28;1.23;;;;;;;16.99;42.91;100406.34;10496482;28;20048;-80
2022/11/01 10:50:59;;;;;;;5.93;1.05;;;;;;;16.69;43.39;100377.94;10516756;28;20037;-80
2022/11/01 10:56:08;;;;;;;9.43;1.58;;;;;;;18.73;41.36;100396.00;10517248;28;20089;-79
2022/11/01 11:01:18;;;;;;;11.23;1.65;;;;;;;18.93;41.97;100389.16;10519004;22;20041;-76
2022/11/01 11:06:21;;;;;;;5.45;1.50;;;;;;;18.85;40.92;100401.97;10470048;28;20136;-77
2022/11/01 11:11:35;;;;;;;3.95;1.20;;;;;;;18.39;40.94;100416.22;10475607;28;20036;-77
2022/11/01 11:16:43;;;;;;;3.25;1.17;;;;;;;18.51;40.94;100422.13;10514431;28;20036;-77
2022/11/01 11:21:48;;;;;;;7.18;2.20;;;;;;;17.97;42.84;100392.00;10517559;28;20096;-77
2022/11/01 11:26:55;;;;;;;10.95;1.58;;;;;;;18.06;41.92;100410.88;10507686;28;20509;-77
2022/11/01 11:32:00;;;;;;;6.50;1.25;;;;;;;18.36;42.01;100414.69;10529734;28;20048;-77
2022/11/01 11:37:05;;;;;;;7.68;1.85;;;;;;;18.71;41.28;100414.41;10520288;28;20458;-77
2022/11/01 11:42:17;;;;;;;9.80;1.58;;;;;;;19.61;40.30;100398.41;10510084;28;20036;-77
2022/11/01 11:47:21;;;;;;;;;;;;;;;20.15;39.59;100405.53;10514551;28;20138;-77
2022/11/01 11:52:31;;;;;;;6.00;1.85;;;;;;;19.26;40.32;100408.00;10520937;28;20522;-77
2022/11/01 11:57:51;;;;;;;9.65;1.65;;;;;;;18.88;41.50;100409.78;10523693;28;20457;-78
2022/11/01 12:02:54;;;;;;;5.78;1.55;;;;;;;19.02;40.05;100409.84;10547320;28;20040;-78
2022/11/01 12:07:57;;;;;;;5.45;1.85;;;;;;;18.62;40.52;100410.84;10536663;28;20054;-76
2022/11/01 12:13:04;;;;;;;10.15;1.70;;;;;;;18.24;41.77;100407.94;10521263;28;20044;-78
2022/11/01 12:18:12;;;;;;;6.95;2.13;;;;;;;18.00;42.12;100416.16;10509127;28;20045;-78
2022/11/01 12:23:32;;;;;;;7.63;1.90;;;;;;;17.68;42.18;100402.38;10546704;28;20066;-78
2022/11/01 12:28:40;;;;;;;7.10;1.95;;;;;;;18.00;42.73;100425.16;10551740;28;20044;-79
2022/11/01 12:33:48;;;;;;;8.95;2.00;;;;;;;18.09;41.93;100420.53;10538572;28;20074;-78
2022/11/01 12:38:57;;;;;;;5.20;1.40;;;;;;;18.09;41.16;100418.66;10545319;28;20048;-78
2022/11/01 12:58:00;;;;;;;14.77;1.63;;;;;;;18.02;41.80;100419.53;10418143;28;20390;-78
2022/11/01 13:03:25;;;;;;;7.07;1.67;;;;;;;18.33;41.48;100439.53;10422927;28;20056;-76
2022/11/01 13:08:36;;;;;;;5.38;1.30;;;;;;;18.06;41.41;100434.47;10424457;28;20073;-77
2022/11/01 13:13:44;;;;;;;13.18;2.38;;;;;;;17.69;42.53;100436.69;10401675;28;20045;-77
2022/11/01 13:18:55;;;;;;;11.50;1.80;;;;;;;17.80;42.27;100429.19;10422049;28;20056;-77
2022/11/01 13:24:07;;;;;;;8.88;1.75;;;;;;;17.53;42.52;100431.25;10422494;28;20398;-78
2022/11/01 13:29:13;;;;;;;8.60;2.38;;;;;;;;;;10432747;28;20053;-78
2022/11/01 13:34:40;;;;;;;10.00;1.88;;;;;;;19.04;40.51;100450.50;10448521;28;20045;-78
2022/11/01 13:39:58;;;;;;;6.07;2.05;;;;;;;18.65;40.57;100443.19;10432093;28;20065;-77
2022/11/01 13:45:33;;;;;;;7.00;1.90;;;;;;;18.83;40.80;100433.94;10422535;28;20045;-77
2022/11/01 13:50:50;;;;;;;6.38;2.03;;;;;;;17.41;42.85;100447.00;10413571;28;20051;-77
2022/11/01 13:55:57;;;;;;;9.00;1.73;;;;;;;17.77;42.29;100454.00;10409037;28;20116;-77
2022/11/01 14:01:27;;;;;;;6.85;1.70;;;;;;;17.32;43.20;100448.00;10408761;28;20037;-77
2022/11/01 14:06:36;;;;;;;11.85;1.73;;;;;;;17.31;43.49;100445.47;10407507;28;20311;-76
2022/11/01 14:11:47;;;;;;;12.48;1.67;;;;;;;17.19;43.28;100444.94;10409940;28;20483;-76
2022/11/01 14:16:51;;;;;;;5.85;1.83;;;;;;;16.86;44.05;100444.78;10410035;28;20056;-77
2022/11/01 14:21:53;;;;;;;7.97;1.30;;;;;;;16.99;44.12;100450.59;10413494;28;20053;-78
2022/11/01 14:27:03;;;;;;;9.13;1.77;;;;;;;17.07;43.34;100454.38;10412654;28;20056;-77
2022/11/01 14:32:10;;;;;;;7.95;1.80;;;;;;;16.90;43.54;100443.47;10412114;28;20045;-76
2022/11/01 14:37:19;;;;;;;11.30;1.58;;;;;;;17.07;43.23;100430.78;10411600;28;20038;-77
2022/11/01 14:42:26;;;;;;;4.82;1.20;;;;;;;17.44;42.39;100435.81;10412084;28;20048;-77
2022/11/01 14:47:37;;;;;;;8.55;1.80;;;;;;;17.04;42.59;100445.53;10412285;28;20088;-78
2022/11/01 14:52:45;;;;;;;11.43;1.63;;;;;;;16.22;44.07;100459.69;10409725;28;20050;-77
2022/11/01 14:57:48;;;;;;;10.20;1.67;;;;;;;16.28;44.65;100438.25;10411127;28;20033;-77
2022/11/01 15:02:52;;;;;;;9.02;1.55;;;;;;;16.61;43.81;100435.72;10411376;28;20050;-77
2022/11/01 15:07:58;;;;;;;8.93;1.35;;;;;;;16.38;44.25;100448.16;10411800;28;20092;-77
2022/11/01 15:13:02;;;;;;;6.72;1.50;;;;;;;16.26;44.39;100447.53;10395459;28;20148;-77
2022/11/01 15:18:14;;;;;;;5.85;1.42;;;;;;;16.19;44.30;100441.06;10412625;28;20049;-78
2022/11/01 15:23:20;;;;;;;7.47;1.65;;;;;;;15.92;45.01;100451.84;10409720;28;20038;-76
2022/11/01 15:28:28;;;;;;;9.98;1.70;;;;;;;15.65;45.31;100454.69;10410975;28;20045;-77
2022/11/01 15:33:33;;;;;;;6.72;1.42;;;;;;;15.52;45.45;100463.19;10419321;28;20081;-77
2022/11/01 15:38:49;;;;;;;6.50;1.17;;;;;;;15.40;45.92;100456.31;10412115;28;20509;-77
2022/11/01 15:43:53;;;;;;;4.93;1.27;;;;;;;15.26;46.75;100460.38;10445862;28;20060;-76
2022/11/01 15:49:00;;;;;;;8.77;1.95;;;;;;;15.15;46.59;100456.03;10421904;28;20045;-76
2022/11/01 15:54:06;;;;;;;10.10;1.65;;;;;;;15.03;47.16;100468.06;10416580;28;20491;-77
2022/11/01 15:59:20;;;;;;;8.68;1.73;;;;;;;14.81;47.96;100464.78;10433901;28;20047;-77
2022/11/01 16:04:26;;;;;;;9.05;1.35;;;;;;;14.59;48.37;100463.31;10419559;28;20262;-76
2022/11/01 16:09:36;;;;;;;8.32;2.25;;;;;;;14.40;49.19;100473.31;10416806;28;20669;-78
2022/11/01 16:14:39;;;;;;;5.82;1.40;;;;;;;14.43;49.12;100470.34;10416313;28;20053;-76
2022/11/01 16:19:47;;;;;;;7.43;1.52;;;;;;;14.30;49.65;100484.13;10417124;28;20049;-76
2022/11/01 16:24:50;;;;;;;9.25;1.92;;;;;;;14.04;50.03;100484.75;10419627;28;20038;-78
2022/11/01 16:29:52;;;;;;;6.20;1.50;;;;;;;14.04;50.53;100476.66;10423619;28;20056;-77
2022/11/01 16:34:58;;;;;;;14.07;1.90;;;;;;;14.03;50.18;100485.75;10408849;28;20034;-77
2022/11/01 16:40:23;;;;;;;5.47;1.15;;;;;;;13.90;50.54;100491.47;10413922;28;20420;-77
2022/11/01 16:45:26;;;;;;;16.98;2.83;;;;;;;13.79;50.67;100486.19;10412313;28;20065;-77
2022/11/01 16:50:30;;;;;;;8.45;2.70;;;;;;;13.84;50.81;100488.47;10412881;28;20052;-76
2022/11/01 16:55:33;;;;;;;9.35;1.88;;;;;;;13.84;50.35;100500.09;10415178;28;20034;-77
2022/11/01 17:00:39;;;;;;;8.85;1.63;;;;;;;13.66;50.82;100491.03;10416154;28;20129;-77
2022/11/01 17:05:47;;;;;;;6.47;1.65;;;;;;;13.65;50.80;100498.25;10413398;28;20091;-76
2022/11/01 17:10:57;;;;;;;6.65;1.60;;;;;;;13.62;50.58;100505.78;10413059;28;20080;-77
2022/11/01 17:15:59;;;;;;;8.68;1.67;;;;;;;13.69;50.26;100510.50;10410482;28;20066;-78
2022/11/01 17:26:34;;;;;;;5.43;1.42;;;;;;;13.66;50.08;100510.78;10773319;23;20052;-77
2022/11/01 17:31:37;;;;;;;4.50;1.17;;;;;;;13.59;49.92;100515.03;10167525;29;20060;-76
2022/11/01 17:36:43;;;;;;;6.75;1.30;;;;;;;13.56;49.97;100509.06;10171905;23;20037;-76
2022/11/01 17:41:48;;;;;;;4.97;1.20;;;;;;;13.30;49.95;100508.69;10086044;29;20156;-77
2022/11/01 17:46:50;;;;;;;4.85;1.58;;;;;;;13.51;49.72;100508.63;10086509;29;20063;-77
2022/11/01 17:51:53;;;;;;;5.43;1.30;;;;;;;13.46;49.30;100509.88;10085181;29;20045;-77
2022/11/01 17:56:58;;;;;;;6.80;1.42;;;;;;;13.58;49.56;100505.25;10076584;29;20056;-77
2022/11/01 18:02:01;;;;;;;2.95;1.17;;;;;;;12.99;49.96;100519.56;10079621;29;20037;-77
2022/11/01 18:07:04;;;;;;;5.32;1.35;;;;;;;13.41;49.22;100519.41;10081048;29;20053;-77
2022/11/01 18:12:14;;;;;;;5.78;1.10;;;;;;;13.32;49.32;100531.84;10088094;29;20586;-77
2022/11/01 18:17:31;;;;;;;4.75;1.00;;;;;;;12.90;49.85;100532.00;10082795;29;20552;-76
2022/11/01 18:22:42;;;;;;;6.78;1.70;;;;;;;13.01;49.44;100552.63;10084349;29;20491;-77
2022/11/01 18:27:47;;;;;;;5.43;1.45;;;;;;;13.12;49.14;100533.66;10084364;29;20120;-77
2022/11/01 18:32:56;;;;;;;3.78;0.70;;;;;;;12.81;49.80;100538.22;10083769;29;20409;-77
2022/11/01 18:38:24;;;;;;;5.72;1.90;;;;;;;12.76;49.77;100540.47;10086995;29;20044;-77
2022/11/01 18:43:32;;;;;;;3.65;1.00;;;;;;;12.86;49.56;100548.59;10085746;29;20120;-77
2022/11/01 18:48:35;;;;;;;8.57;1.33;;;;;;;12.79;49.75;100537.50;10086264;29;20113;-77
2022/11/01 18:53:38;;;;;;;6.25;1.13;;;;;;;12.78;49.97;100546.56;10085315;29;20044;-77
2022/11/01 18:58:42;;;;;;;7.45;1.55;;;;;;;12.49;50.26;100551.81;10101590;29;20681;-77
2022/11/01 19:03:45;;;;;;;7.25;1.77;;;;;;;12.41;50.49;100560.56;10077070;29;20049;-77
2022/11/01 19:08:52;;;;;;;8.52;1.35;;;;;;;12.27;51.22;100560.84;10073921;29;20413;-77
2022/11/01 19:13:58;;;;;;;4.80;1.10;;;;;;;12.21;51.58;100570.31;10071567;29;20079;-77
2022/11/01 19:19:00;;;;;;;5.22;1.08;;;;;;;12.19;52.05;100572.28;10078188;29;20121;-76
2022/11/01 19:24:26;;;;;;;3.70;1.10;;;;;;;12.20;52.01;100579.34;10069276;29;20487;-77
2022/11/01 19:29:33;;;;;;;4.68;1.70;;;;;;;12.02;52.52;100587.16;10074018;29;20073;-76
2022/11/01 19:34:40;;;;;;;7.32;1.60;;;;;;;12.27;52.43;100574.31;10072111;29;20045;-76
2022/11/01 19:39:43;;;;;;;6.70;1.83;;;;;;;12.45;52.29;100583.56;10071379;29;20124;-76
2022/11/01 19:44:47;;;;;;;5.28;1.40;;;;;;;12.19;53.00;100582.19;10072073;29;20418;-77
2022/11/01 19:49:50;;;;;;;4.38;1.90;;;;;;;12.06;53.54;100574.28;10069999;29;20049;-76
2022/11/01 19:54:53;;;;;;;8.77;1.58;;;;;;;11.99;53.88;100584.75;10080007;29;20057;-76
2022/11/01 20:00:17;;;;;;;5.38;1.42;;;;;;;11.87;54.42;100585.75;10076022;29;20463;-77
2022/11/01 20:05:26;;;;;;;3.50;1.17;;;;;;;11.88;54.82;100598.25;10076090;29;20042;-76
2022/11/01 20:10:29;;;;;;;13.57;1.38;;;;;;;11.83;55.24;100595.94;10071433;29;20049;-77
2022/11/01 20:15:33;;;;;;;9.00;1.77;;;;;;;11.79;55.53;100601.69;10073397;29;20081;-76
2022/11/01 20:20:36;;;;;;;8.07;1.60;;;;;;;11.54;56.38;100611.75;10077373;29;20045;-76
2022/11/01 20:25:40;;;;;;;8.98;2.38;;;;;;;11.61;56.43;100598.69;10085206;29;20494;-77
2022/11/01 20:30:44;;;;;;;7.13;1.60;;;;;;;11.41;57.12;100600.28;10078568;29;20056;-76
2022/11/01 20:35:47;;;;;;;5.55;1.40;;;;;;;11.47;57.06;100595.28;10080759;29;20037;-77
2022/11/01 20:40:50;;;;;;;7.88;1.58;;;;;;;11.36;57.38;100594.44;10087968;29;20554;-77
2022/11/01 20:45:54;;;;;;;7.07;1.80;;;;;;;11.59;57.19;100588.03;10086787;29;20057;-76
2022/11/01 20:50:58;;;;;;;5.63;1.45;;;;;;;11.30;57.99;100592.25;10078639;29;20059;-76
2022/11/01 20:56:01;;;;;;;11.60;1.98;;;;;;;11.24;58.24;100599.84;10079634;29;20041;-74
2022/11/01 21:01:09;;;;;;;8.82;2.22;;;;;;;11.36;58.02;100592.63;10087607;29;20056;-77
2022/11/01 21:06:14;;;;;;;7.53;1.50;;;;;;;11.45;57.82;100591.00;10088768;29;20069;-75
2022/11/01 21:11:42;;;;;;;8.30;1.60;;;;;;;11.27;58.19;100593.34;10086136;29;20044;-75
2022/11/01 21:16:47;;;;;;;8.45;1.73;;;;;;;11.38;58.43;100593.34;10079871;29;20060;-77
2022/11/01 21:21:52;;;;;;;10.00;2.15;;;;;;;11.31;58.58;100589.44;10091757;29;20072;-77
2022/11/01 21:27:07;;;;;;;11.48;2.08;;;;;;;11.27;58.75;100582.59;10077773;29;20072;-76
2022/11/01 21:32:23;;;;;;;7.57;1.60;;;;;;;11.28;58.87;100593.22;10078992;29;20050;-77
2022/11/01 21:37:29;;;;;;;8.02;1.75;;;;;;;11.24;59.14;100583.72;10092442;29;20056;-77
2022/11/01 21:42:34;;;;;;;13.40;2.47;;;;;;;11.22;59.18;100579.44;10071152;29;20056;-76
2022/11/01 21:47:39;;;;;;;15.80;2.08;;;;;;;11.10;59.67;100577.69;10077569;29;20085;-77
2022/11/01 21:52:47;;;;;;;13.95;3.45;;;;;;;11.18;59.44;100580.66;10077877;29;20053;-77
2022/11/01 21:57:49;;;;;;;;;;;;;;;11.29;59.31;100564.50;10078289;29;20044;-77
2022/11/01 22:02:54;;;;;;;7.97;1.60;;;;;;;11.05;59.89;100575.34;10079595;29;20299;-77
2022/11/01 22:07:56;;;;;;;16.60;2.55;;;;;;;11.03;59.85;100575.50;10079454;29;20121;-77
2022/11/01 22:12:59;;;;;;;9.93;1.98;;;;;;;11.02;60.16;100580.97;10073580;29;20132;-77
2022/11/01 22:18:09;;;;;;;9.25;1.85;;;;;;;11.10;59.94;100567.78;10070410;29;20052;-77
2022/11/01 22:23:12;;;;;;;9.55;2.20;;;;;;;11.08;59.86;100569.75;10039518;29;20050;-77
2022/11/01 22:28:15;;;;;;;;;;;;;;;10.95;60.53;100560.97;10052286;29;20053;-77
2022/11/01 22:33:20;;;;;;;14.15;2.20;;;;;;;11.12;60.04;100565.88;10046172;29;20385;-77
2022/11/01 22:38:23;;;;;;;11.07;2.35;;;;;;;11.06;60.21;100555.56;10039723;29;20071;-77
2022/11/01 22:43:26;;;;;;;8.75;1.73;;;;;;;11.16;59.92;100556.59;10051042;29;20526;-77
2022/11/01 22:48:30;;;;;;;;;;;;;;;11.07;60.20;100554.59;10037325;29;20056;-77
2022/11/01 22:53:33;;;;;;;10.40;1.80;;;;;;;10.91;60.53;100552.28;10047498;29;19935;-77
2022/11/01 22:58:37;;;;;;;;;;;;;;;11.00;60.67;100540.81;10040391;29;20061;-77
2022/11/01 23:03:41;;;;;;;9.48;1.60;;;;;;;10.89;60.96;100548.00;10042513;29;19935;-77
2022/11/01 23:08:44;;;;;;;12.73;2.00;;;;;;;10.98;60.89;100544.59;10034817;29;20133;-77
2022/11/01 23:19:12;;;;;;;7.38;1.60;;;;;;;11.16;60.31;100528.81;10034265;29;20049;-77
2022/11/01 23:24:14;;;;;;;9.30;1.70;;;;;;;11.27;60.02;100521.63;10036586;29;20053;-77
2022/11/01 23:29:18;;;;;;;12.88;2.17;;;;;;;11.35;59.87;100526.34;10034048;29;20049;-77
2022/11/01 23:34:22;;;;;;;8.40;1.98;;;;;;;11.36;59.90;100511.06;10031678;29;20057;-77
2022/11/01 23:39:31;;;;;;;13.27;1.40;;;;;;;11.38;59.88;100518.03;10032995;29;20064;-77
2022/11/01 23:44:37;;;;;;;5.80;1.40;;;;;;;11.32;60.04;100505.06;10036277;29;20076;-77
2022/11/01 23:49:42;;;;;;;14.40;1.90;;;;;;;11.45;59.80;100515.69;10034244;29;20437;-77
2022/11/01 23:54:45;;;;;;;10.65;2.05;;;;;;;11.46;59.77;100503.94;10039152;29;20108;-77
2022/11/01 23:59:50;;;;;;;12.93;1.80;;;;;;;11.56;59.46;100496.81;10046403;29;20232;-77
